sensor_id;sensor_type;location;lat;lon;timestamp;pressure;altitude;pressure_sealevel;temperature;humidity
59104;BME280;51449;51.676;5.812;2023-01-28T00:33:47;102870.13;;;3.74;68.34
59104;BME280;51449;51.676;5.812;2023-01-28T00:36:12;102871.66;;;3.70;67.76
59104;BME280;51449;51.676;5.812;2023-01-28T00:38:39;102877.13;;;3.70;68.21
59104;BME280;51449;51.676;5.812;2023-01-28T00:41:14;102873.47;;;3.76;68.06
59104;BME280;51449;51.676;5.812;2023-01-28T00:43:42;102874.66;;;3.80;68.23
59104;BME280;51449;51.676;5.812;2023-01-28T00:46:13;102870.25;;;3.79;68.17
59104;BME280;51449;51.676;5.812;2023-01-28T00:52:03;102882.13;;;3.73;68.40
59104;BME280;51449;51.676;5.812;2023-01-28T00:54:50;102885.78;;;3.67;67.67
59104;BME280;51449;51.676;5.812;2023-01-28T00:57:16;102893.34;;;3.65;67.74
59104;BME280;51449;51.676;5.812;2023-01-28T00:59:43;102891.44;;;3.65;67.58
59104;BME280;51449;51.676;5.812;2023-01-28T01:02:31;102884.69;;;3.68;68.03
59104;BME280;51449;51.676;5.812;2023-01-28T01:04:59;102888.03;;;3.70;68.22
59104;BME280;51449;51.676;5.812;2023-01-28T01:07:37;102883.41;;;3.71;67.72
59104;BME280;51449;51.676;5.812;2023-01-28T01:10:05;102877.22;;;3.75;67.98
59104;BME280;51449;51.676;5.812;2023-01-28T01:12:31;102877.84;;;3.77;68.00
59104;BME280;51449;51.676;5.812;2023-01-28T01:17:37;102873.56;;;3.81;68.22
59104;BME280;51449;51.676;5.812;2023-01-28T01:20:11;102871.94;;;3.80;67.98
59104;BME280;51449;51.676;5.812;2023-01-28T01:22:46;102879.72;;;3.77;67.85
59104;BME280;51449;51.676;5.812;2023-01-28T01:25:16;102879.72;;;3.77;67.78
59104;BME280;51449;51.676;5.812;2023-01-28T01:28:08;102874.06;;;3.78;67.96
59104;BME280;51449;51.676;5.812;2023-01-28T01:30:37;102878.91;;;3.76;68.20
59104;BME280;51449;51.676;5.812;2023-01-28T01:33:12;102875.09;;;3.77;68.54
59104;BME280;51449;51.676;5.812;2023-01-28T01:35:41;102881.03;;;3.74;68.29
59104;BME280;51449;51.676;5.812;2023-01-28T01:38:16;102877.22;;;3.75;68.41
59104;BME280;51449;51.676;5.812;2023-01-28T01:41:02;102879.50;;;3.78;68.08
59104;BME280;51449;51.676;5.812;2023-01-28T01:43:55;102881.16;;;3.79;67.79
59104;BME280;51449;51.676;5.812;2023-01-28T01:49:37;102888.50;;;3.79;67.82
59104;BME280;51449;51.676;5.812;2023-01-28T01:52:06;102885.66;;;3.74;67.18
59104;BME280;51449;51.676;5.812;2023-01-28T01:54:43;102889.31;;;3.68;66.98
59104;BME280;51449;51.676;5.812;2023-01-28T01:57:21;102889.81;;;3.64;67.52
59104;BME280;51449;51.676;5.812;2023-01-28T01:59:52;102885.78;;;3.67;67.90
59104;BME280;51449;51.676;5.812;2023-01-28T02:02:22;102883.66;;;3.69;67.80
59104;BME280;51449;51.676;5.812;2023-01-28T02:04:50;102889.94;;;3.70;67.52
59104;BME280;51449;51.676;5.812;2023-01-28T02:07:19;102882.13;;;3.73;67.93
59104;BME280;51449;51.676;5.812;2023-01-28T02:09:50;102885.91;;;3.72;67.69
59104;BME280;51449;51.676;5.812;2023-01-28T02:12:35;102880.44;;;3.72;67.73
59104;BME280;51449;51.676;5.812;2023-01-28T02:15:12;102891.13;;;3.74;67.89
59104;BME280;51449;51.676;5.812;2023-01-28T02:17:42;102894.56;;;3.69;67.93
59104;BME280;51449;51.676;5.812;2023-01-28T02:20:18;102898.09;;;3.70;67.72
59104;BME280;51449;51.676;5.812;2023-01-28T02:29:37;102887.41;;;3.68;67.97
59104;BME280;51449;51.676;5.812;2023-01-28T02:32:35;102885.06;;;3.72;68.00
59104;BME280;51449;51.676;5.812;2023-01-28T02:35:54;102880.91;;;3.69;67.77
59104;BME280;51449;51.676;5.812;2023-01-28T02:38:30;102887.41;;;3.68;67.80
59104;BME280;51449;51.676;5.812;2023-01-28T02:41:06;102887.41;;;3.68;67.91
59104;BME280;51449;51.676;5.812;2023-01-28T02:46:39;102884.69;;;3.68;67.56
59104;BME280;51449;51.676;5.812;2023-01-28T02:49:32;102885.56;;;3.69;67.43
59104;BME280;51449;51.676;5.812;2023-01-28T02:55:44;102887.41;;;3.68;67.41
59104;BME280;51449;51.676;5.812;2023-01-28T02:58:25;102890.75;;;3.70;68.12
59104;BME280;51449;51.676;5.812;2023-01-28T03:01:24;102885.28;;;3.70;67.72
59104;BME280;51449;51.676;5.812;2023-01-28T03:06:56;102886.59;;;3.68;67.69
59104;BME280;51449;51.676;5.812;2023-01-28T03:09:26;102886.00;;;3.65;67.97
59104;BME280;51449;51.676;5.812;2023-01-28T03:12:03;102892.31;;;3.66;67.85
59104;BME280;51449;51.676;5.812;2023-01-28T03:15:00;102893.13;;;3.67;67.97
59104;BME280;51449;51.676;5.812;2023-01-28T03:18:46;102901.78;;;3.63;67.64
59104;BME280;51449;51.676;5.812;2023-01-28T03:21:51;102896.56;;;3.62;67.93
59104;BME280;51449;51.676;5.812;2023-01-28T03:24:46;102891.09;;;3.62;67.97
59104;BME280;51449;51.676;5.812;2023-01-28T04:31:53;102919.38;;;3.37;65.06
59104;BME280;51449;51.676;5.812;2023-01-28T04:34:54;102912.16;;;3.43;65.37
59104;BME280;51449;51.676;5.812;2023-01-28T04:37:49;102910.66;;;3.47;65.75
59104;BME280;51449;51.676;5.812;2023-01-28T04:40:43;102912.41;;;3.41;64.99
59104;BME280;51449;51.676;5.812;2023-01-28T04:43:37;102913.47;;;3.40;65.31
59104;BME280;51449;51.676;5.812;2023-01-28T04:46:24;102916.19;;;3.40;65.12
59104;BME280;51449;51.676;5.812;2023-01-28T05:00:16;102922.31;;;3.24;63.89
59104;BME280;51449;51.676;5.812;2023-01-28T05:03:30;102929.91;;;3.22;64.32
59104;BME280;51449;51.676;5.812;2023-01-28T05:06:00;102930.94;;;3.21;64.44
59104;BME280;51449;51.676;5.812;2023-01-28T05:08:46;102930.72;;;3.22;64.34
59104;BME280;51449;51.676;5.812;2023-01-28T05:11:14;102923.72;;;3.27;64.06
59104;BME280;51449;51.676;5.812;2023-01-28T05:13:48;102924.59;;;3.27;64.25
59104;BME280;51449;51.676;5.812;2023-01-28T05:16:15;102927.91;;;3.29;63.72
59104;BME280;51449;51.676;5.812;2023-01-28T05:18:38;102933.09;;;3.31;63.40
59104;BME280;51449;51.676;5.812;2023-01-28T05:45:39;102923.50;;;3.28;64.25
59104;BME280;51449;51.676;5.812;2023-01-28T05:48:14;102926.22;;;3.28;64.35
59104;BME280;51449;51.676;5.812;2023-01-28T05:50:55;102926.69;;;3.25;64.41
59104;BME280;51449;51.676;5.812;2023-01-28T05:53:26;102926.09;;;3.23;64.55
59104;BME280;51449;51.676;5.812;2023-01-28T05:55:49;102925.88;;;3.25;64.79
59104;BME280;51449;51.676;5.812;2023-01-28T05:58:13;102926.09;;;3.23;65.17
59104;BME280;51449;51.676;5.812;2023-01-28T06:00:35;102931.91;;;3.27;65.44
59104;BME280;51449;51.676;5.812;2023-01-28T06:02:58;102931.91;;;3.27;65.35
59104;BME280;51449;51.676;5.812;2023-01-28T06:05:20;102934.88;;;3.25;65.38
59104;BME280;51449;51.676;5.812;2023-01-28T06:07:46;102934.63;;;3.27;65.61
59104;BME280;51449;51.676;5.812;2023-01-28T06:10:09;102938.66;;;3.24;65.15
59104;BME280;51449;51.676;5.812;2023-01-28T06:12:32;102946.25;;;3.22;65.25
59104;BME280;51449;51.676;5.812;2023-01-28T06:15:23;102940.63;;;3.17;65.69
59104;BME280;51449;51.676;5.812;2023-01-28T06:17:53;102943.81;;;3.14;65.04
59104;BME280;51449;51.676;5.812;2023-01-28T06:20:23;102945.38;;;3.10;65.06
59104;BME280;51449;51.676;5.812;2023-01-28T06:22:45;102944.38;;;3.04;64.62
59104;BME280;51449;51.676;5.812;2023-01-28T06:25:07;102935.59;;;3.02;64.90
59104;BME280;51449;51.676;5.812;2023-01-28T06:27:30;102942.34;;;2.99;65.22
59104;BME280;51449;51.676;5.812;2023-01-28T06:29:52;102950.84;;;2.91;64.36
59104;BME280;51449;51.676;5.812;2023-01-28T06:32:14;102946.31;;;2.85;64.73
59104;BME280;51449;51.676;5.812;2023-01-28T06:34:35;102943.81;;;2.84;64.78
59104;BME280;51449;51.676;5.812;2023-01-28T06:36:57;102945.25;;;2.86;65.41
59104;BME280;51449;51.676;5.812;2023-01-28T06:39:20;102946.31;;;2.85;65.34
59104;BME280;51449;51.676;5.812;2023-01-28T06:41:42;102940.28;;;2.83;65.05
59104;BME280;51449;51.676;5.812;2023-01-28T06:44:04;102948.06;;;2.79;65.36
59104;BME280;51449;51.676;5.812;2023-01-28T06:46:26;102944.13;;;2.75;65.09
59104;BME280;51449;51.676;5.812;2023-01-28T06:48:48;102946.47;;;2.72;65.09
59104;BME280;51449;51.676;5.812;2023-01-28T06:51:10;102943.16;;;2.70;65.02
59104;BME280;51449;51.676;5.812;2023-01-28T06:53:31;102948.00;;;2.68;65.16
59104;BME280;51449;51.676;5.812;2023-01-28T06:55:53;102948.00;;;2.68;65.40
59104;BME280;51449;51.676;5.812;2023-01-28T06:58:15;102950.72;;;2.68;65.63
59104;BME280;51449;51.676;5.812;2023-01-28T07:00:37;102951.78;;;2.67;65.14
59104;BME280;51449;51.676;5.812;2023-01-28T07:02:58;102952.25;;;2.64;65.30
59104;BME280;51449;51.676;5.812;2023-01-28T07:05:20;102949.53;;;2.64;65.29
59104;BME280;51449;51.676;5.812;2023-01-28T07:07:42;102961.44;;;2.63;64.76
59104;BME280;51449;51.676;5.812;2023-01-28T07:10:04;102968.78;;;2.62;64.65
59104;BME280;51449;51.676;5.812;2023-01-28T07:12:26;102956.47;;;2.60;64.49
59104;BME280;51449;51.676;5.812;2023-01-28T07:14:47;102957.53;;;2.59;64.36
59104;BME280;51449;51.676;5.812;2023-01-28T07:17:09;102965.72;;;2.59;64.20
59104;BME280;51449;51.676;5.812;2023-01-28T07:19:31;102969.94;;;2.54;63.92
59104;BME280;51449;51.676;5.812;2023-01-28T07:21:52;102973.47;;;2.55;64.14
59104;BME280;51449;51.676;5.812;2023-01-28T07:24:18;102975.22;;;2.49;64.06
59104;BME280;51449;51.676;5.812;2023-01-28T07:26:40;102980.66;;;2.49;63.53
59104;BME280;51449;51.676;5.812;2023-01-28T07:29:01;102985.50;;;2.47;63.47
59104;BME280;51449;51.676;5.812;2023-01-28T07:31:24;102989.25;;;2.46;63.67
59104;BME280;51449;51.676;5.812;2023-01-28T07:33:45;102989.19;;;2.53;64.11
59104;BME280;51449;51.676;5.812;2023-01-28T07:36:07;102992.53;;;2.55;63.63
59104;BME280;51449;51.676;5.812;2023-01-28T07:38:29;103005.31;;;2.54;63.72
59104;BME280;51449;51.676;5.812;2023-01-28T07:40:51;103001.38;;;2.50;63.30
59104;BME280;51449;51.676;5.812;2023-01-28T07:43:13;102997.22;;;2.48;63.78
59104;BME280;51449;51.676;5.812;2023-01-28T07:45:34;102999.09;;;2.47;63.87
59104;BME280;51449;51.676;5.812;2023-01-28T07:48:00;102998.63;;;2.50;63.85
59104;BME280;51449;51.676;5.812;2023-01-28T07:50:25;102995.91;;;2.50;64.03
59104;BME280;51449;51.676;5.812;2023-01-28T07:52:47;102999.03;;;2.54;64.49
59104;BME280;51449;51.676;5.812;2023-01-28T07:55:10;103004.63;;;2.59;64.30
59104;BME280;51449;51.676;5.812;2023-01-28T07:57:36;103015.66;;;2.64;64.60
59104;BME280;51449;51.676;5.812;2023-01-28T07:59:57;103015.22;;;2.67;64.80
59104;BME280;51449;51.676;5.812;2023-01-28T08:02:19;103008.13;;;2.66;64.63
59104;BME280;51449;51.676;5.812;2023-01-28T08:04:41;103008.94;;;2.67;64.69
59104;BME280;51449;51.676;5.812;2023-01-28T08:07:03;103009.75;;;2.67;64.61
59104;BME280;51449;51.676;5.812;2023-01-28T08:09:28;103012.28;;;2.69;64.29
59104;BME280;51449;51.676;5.812;2023-01-28T08:11:50;103003.84;;;2.70;64.72
59104;BME280;51449;51.676;5.812;2023-01-28T08:14:11;103009.09;;;2.72;64.40
59104;BME280;51449;51.676;5.812;2023-01-28T08:16:33;103012.28;;;2.69;64.11
59104;BME280;51449;51.676;5.812;2023-01-28T08:18:55;103027.31;;;2.71;63.37
59104;BME280;51449;51.676;5.812;2023-01-28T08:21:17;103028.13;;;2.72;63.37
59104;BME280;51449;51.676;5.812;2023-01-28T08:23:39;103031.47;;;2.74;63.62
59104;BME280;51449;51.676;5.812;2023-01-28T08:26:01;103036.09;;;2.73;63.84
59104;BME280;51449;51.676;5.812;2023-01-28T08:28:23;103041.91;;;2.77;63.92
59104;BME280;51449;51.676;5.812;2023-01-28T08:30:45;103048.78;;;2.79;63.67
59104;BME280;51449;51.676;5.812;2023-01-28T08:33:10;103042.28;;;2.81;63.33
59104;BME280;51449;51.676;5.812;2023-01-28T08:35:33;103048.56;;;2.81;63.83
59104;BME280;51449;51.676;5.812;2023-01-28T08:37:58;103051.28;;;2.81;64.06
59104;BME280;51449;51.676;5.812;2023-01-28T08:40:21;103046.66;;;2.82;63.77
59104;BME280;51449;51.676;5.812;2023-01-28T08:42:47;103061.94;;;2.83;63.61
59104;BME280;51449;51.676;5.812;2023-01-28T08:45:10;103054.47;;;2.78;63.49
59104;BME280;51449;51.676;5.812;2023-01-28T08:47:31;103052.31;;;2.80;63.93
59104;BME280;51449;51.676;5.812;2023-01-28T08:49:53;103056.47;;;2.83;63.60
59104;BME280;51449;51.676;5.812;2023-01-28T08:52:15;103059.00;;;2.84;63.46
59104;BME280;51449;51.676;5.812;2023-01-28T08:54:36;103048.94;;;2.85;63.20
59104;BME280;51449;51.676;5.812;2023-01-28T08:56:58;103058.53;;;2.87;63.39
59104;BME280;51449;51.676;5.812;2023-01-28T08:59:20;103061.03;;;2.89;63.75
59104;BME280;51449;51.676;5.812;2023-01-28T09:01:41;103073.81;;;2.88;63.39
59104;BME280;51449;51.676;5.812;2023-01-28T09:04:03;103072.53;;;2.91;63.22
59104;BME280;51449;51.676;5.812;2023-01-28T09:06:25;103075.00;;;2.92;63.49
59104;BME280;51449;51.676;5.812;2023-01-28T09:08:47;103073.50;;;2.96;63.70
59104;BME280;51449;51.676;5.812;2023-01-28T09:11:08;103066.41;;;2.95;63.50
59104;BME280;51449;51.676;5.812;2023-01-28T09:13:30;103088.19;;;2.95;63.08
59104;BME280;51449;51.676;5.812;2023-01-28T09:15:52;103084.88;;;2.93;63.11
59104;BME280;51449;51.676;5.812;2023-01-28T09:18:14;103082.16;;;2.93;62.73
59104;BME280;51449;51.676;5.812;2023-01-28T09:20:36;103091.81;;;2.89;62.37
59104;BME280;51449;51.676;5.812;2023-01-28T09:22:59;103095.16;;;2.91;62.44
59104;BME280;51449;51.676;5.812;2023-01-28T09:25:22;103091.00;;;2.89;63.10
59104;BME280;51449;51.676;5.812;2023-01-28T09:27:44;103088.47;;;2.87;63.26
59104;BME280;51449;51.676;5.812;2023-01-28T09:30:06;103082.88;;;2.82;62.98
59104;BME280;51449;51.676;5.812;2023-01-28T09:32:30;103085.91;;;2.74;62.85
59104;BME280;51449;51.676;5.812;2023-01-28T09:34:52;103089.09;;;2.71;62.86
59104;BME280;51449;51.676;5.812;2023-01-28T09:37:14;103093.00;;;2.75;62.72
59104;BME280;51449;51.676;5.812;2023-01-28T09:39:36;103091.09;;;2.75;62.19
59104;BME280;51449;51.676;5.812;2023-01-28T09:42:26;103087.81;;;2.73;62.41
59104;BME280;51449;51.676;5.812;2023-01-28T09:45:16;103093.84;;;2.75;62.52
59104;BME280;51449;51.676;5.812;2023-01-28T09:47:47;103093.84;;;2.75;62.29
59104;BME280;51449;51.676;5.812;2023-01-28T09:50:35;103090.69;;;2.78;62.41
59104;BME280;51449;51.676;5.812;2023-01-28T09:53:22;103105.72;;;2.81;62.24
59104;BME280;51449;51.676;5.812;2023-01-28T09:56:13;103106.34;;;2.83;62.29
59104;BME280;51449;51.676;5.812;2023-01-28T09:58:46;103106.19;;;2.78;61.66
59104;BME280;51449;51.676;5.812;2023-01-28T10:07:02;103122.22;;;2.86;62.74
59104;BME280;51449;51.676;5.812;2023-01-28T10:12:32;103121.16;;;2.87;62.62
59104;BME280;51449;51.676;5.812;2023-01-28T10:15:19;103132.50;;;2.84;62.06
59104;BME280;51449;51.676;5.812;2023-01-28T10:18:08;103127.50;;;2.81;61.97
59104;BME280;51449;51.676;5.812;2023-01-28T10:25:43;103131.88;;;2.82;62.86
59104;BME280;51449;51.676;5.812;2023-01-28T10:28:17;103124.31;;;2.84;63.05
59104;BME280;51449;51.676;5.812;2023-01-28T10:30:42;103121.41;;;2.86;62.70
59104;BME280;51449;51.676;5.812;2023-01-28T10:33:23;103122.84;;;2.88;63.25
59104;BME280;51449;51.676;5.812;2023-01-28T10:35:54;103120.09;;;2.88;62.84
59104;BME280;51449;51.676;5.812;2023-01-28T10:38:23;103118.22;;;2.89;62.79
59104;BME280;51449;51.676;5.812;2023-01-28T10:40:47;103121.75;;;2.89;62.80
59104;BME280;51449;51.676;5.812;2023-01-28T10:43:09;103122.59;;;2.90;62.73
59104;BME280;51449;51.676;5.812;2023-01-28T10:45:40;103112.78;;;2.89;62.47
59104;BME280;51449;51.676;5.812;2023-01-28T10:48:16;103106.50;;;2.88;62.83
59104;BME280;51449;51.676;5.812;2023-01-28T10:50:54;103111.69;;;2.90;63.28
59104;BME280;51449;51.676;5.812;2023-01-28T10:53:41;103119.88;;;2.90;63.36
59104;BME280;51449;51.676;5.812;2023-01-28T10:56:10;103121.16;;;2.87;63.22
59104;BME280;51449;51.676;5.812;2023-01-28T10:58:49;103104.81;;;2.87;63.36
59104;BME280;51449;51.676;5.812;2023-01-28T11:01:14;103102.09;;;2.87;63.72
59104;BME280;51449;51.676;5.812;2023-01-28T11:03:35;103111.47;;;2.91;63.68
59104;BME280;51449;51.676;5.812;2023-01-28T11:05:58;103112.09;;;2.93;63.08
59104;BME280;51449;51.676;5.812;2023-01-28T11:08:21;103104.97;;;2.92;62.97
59104;BME280;51449;51.676;5.812;2023-01-28T11:10:46;103100.97;;;2.95;63.13
59104;BME280;51449;51.676;5.812;2023-01-28T11:13:21;103092.97;;;3.00;63.02
59104;BME280;51449;51.676;5.812;2023-01-28T11:15:49;103084.09;;;3.05;63.50
59104;BME280;51449;51.676;5.812;2023-01-28T11:18:25;103078.97;;;3.15;63.92
59104;BME280;51449;51.676;5.812;2023-01-28T11:21:01;103089.06;;;3.26;63.79
59104;BME280;51449;51.676;5.812;2023-01-28T11:23:29;103079.88;;;3.27;62.96
59104;BME280;51449;51.676;5.812;2023-01-28T11:26:05;103064.94;;;3.30;63.00
59104;BME280;51449;51.676;5.812;2023-01-28T11:28:39;103060.47;;;3.35;62.84
59104;BME280;51449;51.676;5.812;2023-01-28T11:31:02;103056.38;;;3.45;63.26
59104;BME280;51449;51.676;5.812;2023-01-28T11:33:32;103064.59;;;3.56;63.11
59104;BME280;51449;51.676;5.812;2023-01-28T11:36:13;103058.81;;;3.64;63.30
59104;BME280;51449;51.676;5.812;2023-01-28T11:38:57;103058.72;;;3.71;62.74
59104;BME280;51449;51.676;5.812;2023-01-28T11:43:47;103051.59;;;3.70;61.35
59104;BME280;51449;51.676;5.812;2023-01-28T11:46:46;103052.78;;;3.74;61.78
59104;BME280;51449;51.676;5.812;2023-01-28T11:52:14;103028.28;;;3.86;61.68
59104;BME280;51449;51.676;5.812;2023-01-28T11:58:19;102992.00;;;3.97;61.94
59104;BME280;51449;51.676;5.812;2023-01-28T12:00:55;102990.38;;;4.08;61.63
59104;BME280;51449;51.676;5.812;2023-01-28T12:06:38;102969.72;;;4.24;61.10
59104;BME280;51449;51.676;5.812;2023-01-28T12:09:37;102966.53;;;4.27;61.13
59104;BME280;51449;51.676;5.812;2023-01-28T12:15:05;102969.97;;;4.34;60.86
59104;BME280;51449;51.676;5.812;2023-01-28T12:18:02;102968.78;;;4.42;61.24
59104;BME280;51449;51.676;5.812;2023-01-28T12:23:49;102976.34;;;4.63;60.81
59104;BME280;51449;51.676;5.812;2023-01-28T12:26:41;102988.41;;;4.67;60.30
59104;BME280;51449;51.676;5.812;2023-01-28T12:38:34;103007.81;;;4.94;59.05
59104;BME280;51449;51.676;5.812;2023-01-28T12:41:19;102998.56;;;4.96;59.21
59104;BME280;51449;51.676;5.812;2023-01-28T12:43:58;102996.19;;;4.99;59.29
59104;BME280;51449;51.676;5.812;2023-01-28T12:46:36;103001.63;;;4.99;58.52
59104;BME280;51449;51.676;5.812;2023-01-28T12:49:19;103006.66;;;4.90;58.72
59104;BME280;51449;51.676;5.812;2023-01-28T12:52:03;103002.97;;;4.85;58.75
59104;BME280;51449;51.676;5.812;2023-01-28T12:54:54;103000.41;;;4.78;59.14
59104;BME280;51449;51.676;5.812;2023-01-28T12:57:30;102997.41;;;4.80;59.72
59104;BME280;51449;51.676;5.812;2023-01-28T13:00:49;103000.63;;;4.88;59.98
59104;BME280;51449;51.676;5.812;2023-01-28T13:05:41;103008.53;;;5.02;59.65
59104;BME280;51449;51.676;5.812;2023-01-28T13:10:47;103008.53;;;5.02;59.65
59104;BME280;51449;51.676;5.812;2023-01-28T13:13:16;102998.56;;;4.96;59.09
59104;BME280;51449;51.676;5.812;2023-01-28T13:15:55;103004.56;;;4.81;58.55
59104;BME280;51449;51.676;5.812;2023-01-28T13:18:42;102997.09;;;4.64;58.61
59104;BME280;51449;51.676;5.812;2023-01-28T13:23:46;102999.00;;;4.76;59.02
59104;BME280;51449;51.676;5.812;2023-01-28T13:28:52;102987.78;;;4.89;58.88
59104;BME280;51449;51.676;5.812;2023-01-28T13:31:17;102985.63;;;4.91;58.79
59104;BME280;51449;51.676;5.812;2023-01-28T13:33:44;102991.59;;;4.88;58.46
59104;BME280;51449;51.676;5.812;2023-01-28T13:36:29;102983.84;;;4.97;58.80
59104;BME280;51449;51.676;5.812;2023-01-28T13:39:01;102972.91;;;4.97;58.31
59104;BME280;51449;51.676;5.812;2023-01-28T13:41:47;102968.63;;;5.01;58.83
59104;BME280;51449;51.676;5.812;2023-01-28T13:46:48;102952.78;;;5.14;59.19
59104;BME280;51449;51.676;5.812;2023-01-28T13:49:27;102949.41;;;5.24;58.82
59104;BME280;51449;51.676;5.812;2023-01-28T13:52:06;102941.84;;;5.31;58.73
59104;BME280;51449;51.676;5.812;2023-01-28T13:55:04;102924.91;;;5.29;58.66
59104;BME280;51449;51.676;5.812;2023-01-28T14:00:25;102902.78;;;5.31;58.68
59104;BME280;51449;51.676;5.812;2023-01-28T14:12:31;102914.22;;;5.45;58.29
59104;BME280;51449;51.676;5.812;2023-01-28T14:15:39;102926.47;;;5.42;57.88
59104;BME280;51449;51.676;5.812;2023-01-28T14:20:47;102943.09;;;5.24;58.62
59104;BME280;51449;51.676;5.812;2023-01-28T14:23:16;102940.84;;;5.21;58.12
59104;BME280;51449;51.676;5.812;2023-01-28T14:26:04;102955.25;;;5.16;58.22
59104;BME280;51449;51.676;5.812;2023-01-28T14:29:06;102950.06;;;5.14;58.71
59104;BME280;51449;51.676;5.812;2023-01-28T14:31:50;102947.31;;;5.14;58.71
59104;BME280;51449;51.676;5.812;2023-01-28T14:34:31;102945.63;;;5.13;58.86
59104;BME280;51449;51.676;5.812;2023-01-28T14:37:01;102954.34;;;5.10;58.65
59104;BME280;51449;51.676;5.812;2023-01-28T14:39:30;102954.34;;;5.10;59.21
59104;BME280;51449;51.676;5.812;2023-01-28T14:42:01;102957.06;;;5.10;59.40
59104;BME280;51449;51.676;5.812;2023-01-28T14:44:31;102957.06;;;5.10;59.16
59104;BME280;51449;51.676;5.812;2023-01-28T14:50:27;102958.19;;;4.98;59.51
59104;BME280;51449;51.676;5.812;2023-01-28T14:58:36;102961.22;;;4.72;59.51
59104;BME280;51449;51.676;5.812;2023-01-28T15:01:02;102963.84;;;4.67;59.40
59104;BME280;51449;51.676;5.812;2023-01-28T15:03:25;102964.94;;;4.66;60.01
59104;BME280;51449;51.676;5.812;2023-01-28T15:05:48;102966.09;;;4.70;59.68
59104;BME280;51449;51.676;5.812;2023-01-28T15:08:22;102960.41;;;4.72;59.42
59104;BME280;51449;51.676;5.812;2023-01-28T15:10:44;102949.25;;;4.74;59.88
59104;BME280;51449;51.676;5.812;2023-01-28T15:13:09;102947.09;;;4.76;59.80
59104;BME280;51449;51.676;5.812;2023-01-28T15:15:38;102960.25;;;4.79;60.33
59104;BME280;51449;51.676;5.812;2023-01-28T15:18:05;102963.81;;;4.79;60.42
59104;BME280;51449;51.676;5.812;2023-01-28T15:20:34;102952.31;;;4.77;60.18
59104;BME280;51449;51.676;5.812;2023-01-28T15:22:56;102963.22;;;4.77;60.29
59104;BME280;51449;51.676;5.812;2023-01-28T15:25:23;102968.94;;;4.76;60.58
59104;BME280;51449;51.676;5.812;2023-01-28T15:27:50;102973.81;;;4.74;60.72
59104;BME280;51449;51.676;5.812;2023-01-28T15:30:31;102985.78;;;4.72;60.34
59104;BME280;51449;51.676;5.812;2023-01-28T15:33:05;102987.38;;;4.68;60.27
59104;BME280;51449;51.676;5.812;2023-01-28T15:35:34;102993.28;;;4.65;60.53
59104;BME280;51449;51.676;5.812;2023-01-28T15:37:57;102991.63;;;4.64;60.40
59104;BME280;51449;51.676;5.812;2023-01-28T15:40:21;102996.50;;;4.62;60.17
59104;BME280;51449;51.676;5.812;2023-01-28T15:42:44;103003.75;;;4.57;60.44
59104;BME280;51449;51.676;5.812;2023-01-28T15:45:17;103006.72;;;4.55;60.97
59104;BME280;51449;51.676;5.812;2023-01-28T15:47:41;103008.25;;;4.51;60.74
59104;BME280;51449;51.676;5.812;2023-01-28T15:50:05;103013.59;;;4.46;60.30
59104;BME280;51449;51.676;5.812;2023-01-28T15:52:34;103016.47;;;4.39;60.15
59104;BME280;51449;51.676;5.812;2023-01-28T15:54:58;103025.81;;;4.32;60.41
59104;BME280;51449;51.676;5.812;2023-01-28T15:57:24;103030.94;;;4.28;60.69
59104;BME280;51449;51.676;5.812;2023-01-28T16:02:32;103018.97;;;4.17;60.75
59104;BME280;51449;51.676;5.812;2023-01-28T16:04:59;103028.69;;;4.13;60.80
59104;BME280;51449;51.676;5.812;2023-01-28T16:07:32;103029.88;;;4.05;60.63
59104;BME280;51449;51.676;5.812;2023-01-28T16:09:58;103021.19;;;3.97;61.15
59104;BME280;51449;51.676;5.812;2023-01-28T16:12:22;103022.75;;;3.93;60.93
59104;BME280;51449;51.676;5.812;2023-01-28T16:14:56;103017.13;;;3.88;61.02
59104;BME280;51449;51.676;5.812;2023-01-28T16:17:24;103004.06;;;3.78;60.90
59104;BME280;51449;51.676;5.812;2023-01-28T16:20:00;103000.41;;;3.72;61.34
59104;BME280;51449;51.676;5.812;2023-01-28T16:22:36;102996.94;;;3.65;61.50
59104;BME280;51449;51.676;5.812;2023-01-28T16:24:59;102997.75;;;3.54;61.34
59104;BME280;51449;51.676;5.812;2023-01-28T16:27:30;102998.53;;;3.42;61.63
59104;BME280;51449;51.676;5.812;2023-01-28T16:29:52;103007.50;;;3.31;61.84
59104;BME280;51449;51.676;5.812;2023-01-28T16:32:33;103014.78;;;3.19;62.18
59104;BME280;51449;51.676;5.812;2023-01-28T16:34:58;103029.41;;;3.06;62.22
59104;BME280;51449;51.676;5.812;2023-01-28T16:37:20;103027.84;;;2.98;62.49
59104;BME280;51449;51.676;5.812;2023-01-28T16:39:42;103028.72;;;2.92;62.33
59104;BME280;51449;51.676;5.812;2023-01-28T16:42:03;103033.00;;;2.88;62.88
59104;BME280;51449;51.676;5.812;2023-01-28T16:44:25;103029.88;;;2.85;62.73
59104;BME280;51449;51.676;5.812;2023-01-28T16:46:47;103021.09;;;2.83;62.92
59104;BME280;51449;51.676;5.812;2023-01-28T16:49:09;103015.50;;;2.77;62.83
59104;BME280;51449;51.676;5.812;2023-01-28T16:51:31;103016.88;;;2.68;63.01
59104;BME280;51449;51.676;5.812;2023-01-28T16:53:53;103016.56;;;2.58;63.03
59104;BME280;51449;51.676;5.812;2023-01-28T16:56:23;103017.94;;;2.49;63.00
59104;BME280;51449;51.676;5.812;2023-01-28T16:59:11;103015.94;;;2.38;63.13
59104;BME280;51449;51.676;5.812;2023-01-28T17:01:35;103020.63;;;2.30;63.50
59104;BME280;51449;51.676;5.812;2023-01-28T17:03:57;103037.81;;;2.24;63.51
59104;BME280;51449;51.676;5.812;2023-01-28T17:06:19;103025.94;;;2.19;63.63
59104;BME280;51449;51.676;5.812;2023-01-28T17:08:41;103015.97;;;2.12;63.58
59104;BME280;51449;51.676;5.812;2023-01-28T17:11:03;103022.06;;;2.08;64.01
59104;BME280;51449;51.676;5.812;2023-01-28T17:13:25;103013.75;;;2.03;63.95
59104;BME280;51449;51.676;5.812;2023-01-28T17:15:47;103016.06;;;1.99;64.17
59104;BME280;51449;51.676;5.812;2023-01-28T17:18:09;103025.50;;;1.97;64.14
59104;BME280;51449;51.676;5.812;2023-01-28T17:20:31;103027.59;;;1.95;64.49